createdAt,value
2019-05-09T00:02:28.056Z,3.83
2019-05-09T00:04:57.357Z,1.80
2019-05-09T00:07:27.088Z,2.47
2019-05-09T00:09:56.397Z,1.70
2019-05-09T00:12:25.683Z,2.23
2019-05-09T00:14:55.056Z,1.87
2019-05-09T00:17:24.347Z,1.40
2019-05-09T00:19:55.239Z,1.87
2019-05-09T00:22:24.582Z,1.70
2019-05-09T00:24:54.080Z,1.30
2019-05-09T00:27:23.449Z,1.40
2019-05-09T00:29:53.288Z,1.70
2019-05-09T00:32:34.101Z,1.50
2019-05-09T00:35:23.371Z,1.60
2019-05-09T00:37:57.996Z,1.53
2019-05-09T00:40:27.304Z,1.70
2019-05-09T00:42:56.591Z,1.73
2019-05-09T00:45:43.931Z,2.30
2019-05-09T00:48:15.319Z,1.73
2019-05-09T00:50:44.597Z,1.83
2019-05-09T00:53:13.945Z,2.07
2019-05-09T00:55:43.738Z,2.10
2019-05-09T00:58:13.631Z,1.60
2019-05-09T01:00:43.912Z,1.90
2019-05-09T01:03:14.654Z,1.73
2019-05-09T01:05:47.230Z,3.53
2019-05-09T01:08:14.992Z,1.87
2019-05-09T01:10:44.281Z,1.80
2019-05-09T01:13:14.220Z,3.00
2019-05-09T01:15:44.069Z,1.80
2019-05-09T01:18:13.547Z,2.00
2019-05-09T01:20:44.050Z,1.77
2019-05-09T01:23:14.221Z,2.50
2019-05-09T01:25:43.793Z,2.00
2019-05-09T01:28:13.993Z,1.33
2019-05-09T01:30:43.954Z,1.60
2019-05-09T01:33:20.856Z,2.37
2019-05-09T01:35:50.151Z,1.50
2019-05-09T01:38:19.435Z,2.20
2019-05-09T01:40:48.706Z,1.50
2019-05-09T01:43:18.091Z,1.50
2019-05-09T01:45:47.459Z,2.10
2019-05-09T01:48:16.821Z,2.83
2019-05-09T01:50:46.096Z,1.50
2019-05-09T01:53:18.669Z,1.53
2019-05-09T01:56:03.439Z,1.67
2019-05-09T01:58:34.317Z,1.30
2019-05-09T02:01:07.159Z,1.30
2019-05-09T02:03:36.555Z,1.63
2019-05-09T02:06:06.658Z,1.63
2019-05-09T02:08:35.920Z,1.47
2019-05-09T02:11:05.313Z,1.80
2019-05-09T02:13:34.651Z,1.20
2019-05-09T02:16:33.920Z,1.80
2019-05-09T02:19:09.894Z,1.37
2019-05-09T02:21:39.250Z,1.70
2019-05-09T02:24:08.605Z,1.90
2019-05-09T02:26:37.879Z,1.60
2019-05-09T02:29:07.191Z,1.10
2019-05-09T02:31:36.614Z,1.40
2019-05-09T02:34:05.969Z,1.30
2019-05-09T02:36:38.359Z,1.53
2019-05-09T02:39:09.037Z,1.47
2019-05-09T02:41:39.136Z,1.63
2019-05-09T02:44:09.457Z,0.80
2019-05-09T02:46:44.385Z,1.50
2019-05-09T02:49:13.680Z,1.43
2019-05-09T02:51:43.255Z,1.00
2019-05-09T02:54:12.532Z,1.30
2019-05-09T02:56:41.821Z,1.40
2019-05-09T02:59:24.785Z,1.30
2019-05-09T03:02:01.296Z,1.60
2019-05-09T03:04:30.613Z,0.90
2019-05-09T03:07:00.095Z,1.40
2019-05-09T03:09:29.468Z,1.20
2019-05-09T03:12:00.954Z,2.10
2019-05-09T03:14:30.283Z,1.67
2019-05-09T03:16:59.610Z,1.40
2019-05-09T03:19:29.786Z,1.40
2019-05-09T03:22:08.808Z,1.53
2019-05-09T03:24:39.362Z,1.70
2019-05-09T03:27:14.853Z,1.97
2019-05-09T03:29:49.086Z,2.00
2019-05-09T03:32:19.572Z,1.60
2019-05-09T03:34:49.175Z,2.07
2019-05-09T03:37:18.460Z,1.83
2019-05-09T03:39:47.943Z,1.80
2019-05-09T03:42:21.235Z,2.23
2019-05-09T03:44:48.390Z,2.43
2019-05-09T03:47:23.660Z,2.10
2019-05-09T03:50:10.534Z,2.07
2019-05-09T03:52:39.942Z,3.17
2019-05-09T03:55:11.096Z,3.00
2019-05-09T03:57:44.013Z,2.37
2019-05-09T04:00:13.820Z,3.20
2019-05-09T04:02:43.093Z,2.40
2019-05-09T04:05:12.424Z,2.27
2019-05-09T04:07:41.744Z,2.53
2019-05-09T04:10:11.056Z,2.40
2019-05-09T04:12:52.858Z,2.77
2019-05-09T04:15:11.587Z,2.50
2019-05-09T04:17:44.717Z,2.60
2019-05-09T04:20:17.514Z,3.20
2019-05-09T04:22:48.840Z,2.50
2019-05-09T04:25:21.877Z,2.33
2019-05-09T04:27:52.368Z,3.00
2019-05-09T04:30:21.670Z,2.43
2019-05-09T04:32:51.035Z,3.57
2019-05-09T04:35:20.412Z,2.97
2019-05-09T04:37:49.686Z,2.43
2019-05-09T04:40:18.985Z,2.10
2019-05-09T04:42:48.286Z,2.67
2019-05-09T04:45:53.423Z,3.27
2019-05-09T04:48:32.721Z,2.17
2019-05-09T04:51:03.474Z,2.70
2019-05-09T04:53:33.424Z,3.27
2019-05-09T04:56:23.206Z,2.77
2019-05-09T04:58:52.512Z,2.40
2019-05-09T05:01:31.622Z,2.50
2019-05-09T05:04:00.896Z,2.80
2019-05-09T05:06:30.203Z,1.70
2019-05-09T05:08:59.480Z,2.60
2019-05-09T05:11:28.837Z,2.13
2019-05-09T05:13:58.826Z,2.13
2019-05-09T05:16:30.153Z,2.23
2019-05-09T05:18:59.445Z,2.50
2019-05-09T05:21:28.744Z,1.80
2019-05-09T05:24:19.871Z,1.80
2019-05-09T05:26:49.187Z,1.63
2019-05-09T05:29:18.832Z,1.70
2019-05-09T05:31:48.434Z,2.13
2019-05-09T05:34:24.076Z,1.60
2019-05-09T05:36:53.345Z,1.90
2019-05-09T05:39:24.373Z,1.60
2019-05-09T05:41:54.037Z,1.60
2019-05-09T05:44:23.835Z,2.20
2019-05-09T05:47:11.279Z,1.47
2019-05-09T05:49:40.631Z,1.43
2019-05-09T05:52:09.865Z,2.30
2019-05-09T05:54:39.203Z,1.40
2019-05-09T05:57:08.657Z,1.83
2019-05-09T05:59:40.778Z,1.77
2019-05-09T06:02:09.108Z,1.90
2019-05-09T06:04:38.464Z,1.40
2019-05-09T06:07:08.216Z,1.63
2019-05-09T06:09:38.041Z,1.30
2019-05-09T06:12:08.241Z,1.80
2019-05-09T06:14:38.050Z,2.00
2019-05-09T06:17:08.112Z,1.80
2019-05-09T06:19:38.127Z,1.03
2019-05-09T06:22:08.352Z,1.50
2019-05-09T06:24:38.834Z,1.30
2019-05-09T06:27:10.294Z,1.63
2019-05-09T06:29:39.555Z,1.00
2019-05-09T06:32:08.920Z,2.03
2019-05-09T06:34:41.804Z,1.60
2019-05-09T06:37:09.368Z,1.40
2019-05-09T06:39:38.949Z,1.70
2019-05-09T06:42:09.177Z,4.03
2019-05-09T06:44:58.427Z,1.43
2019-05-09T06:47:38.121Z,1.30
2019-05-09T06:50:09.680Z,1.20
2019-05-09T06:52:41.230Z,1.10
2019-05-09T06:55:10.291Z,2.00
2019-05-09T06:57:42.804Z,2.50
2019-05-09T07:00:20.763Z,1.37
2019-05-09T07:02:57.550Z,1.67
2019-05-09T07:05:33.065Z,1.13
2019-05-09T07:08:08.159Z,1.10
2019-05-09T07:10:37.804Z,1.20
2019-05-09T07:13:07.888Z,1.77
2019-05-09T07:15:37.676Z,1.30
2019-05-09T07:18:08.175Z,1.20
2019-05-09T07:20:39.273Z,1.53
2019-05-09T07:23:09.167Z,1.03
2019-05-09T07:26:09.958Z,1.37
2019-05-09T07:28:39.957Z,0.80
2019-05-09T07:31:40.191Z,1.07
2019-05-09T07:34:21.129Z,0.80
2019-05-09T07:36:50.411Z,0.97
2019-05-09T07:39:19.723Z,0.70
2019-05-09T07:41:49.009Z,0.97
2019-05-09T07:44:19.834Z,1.07
2019-05-09T07:47:07.581Z,0.80
2019-05-09T07:49:37.748Z,2.53
2019-05-09T07:52:10.268Z,0.60
2019-05-09T07:54:38.689Z,0.70
2019-05-09T07:57:08.656Z,0.50
2019-05-09T07:59:38.886Z,0.70
2019-05-09T08:02:08.843Z,0.53
2019-05-09T08:04:38.882Z,1.10
2019-05-09T08:07:08.538Z,0.70
2019-05-09T08:09:38.847Z,0.60
2019-05-09T08:12:08.327Z,0.70
2019-05-09T08:14:37.920Z,0.90
2019-05-09T08:17:08.571Z,0.87
2019-05-09T08:19:38.299Z,0.50
2019-05-09T08:22:08.125Z,0.50
2019-05-09T08:24:38.088Z,0.67
2019-05-09T08:27:08.524Z,0.60
2019-05-09T08:29:38.856Z,0.60
2019-05-09T08:32:08.296Z,0.40
2019-05-09T08:34:37.912Z,0.60
2019-05-09T08:37:08.405Z,0.70
2019-05-09T08:39:38.346Z,0.87
2019-05-09T08:42:08.757Z,0.63
2019-05-09T08:44:41.913Z,0.60
2019-05-09T08:47:09.388Z,0.50
2019-05-09T08:49:49.588Z,0.80
2019-05-09T08:52:19.872Z,0.60
2019-05-09T08:54:57.689Z,0.40
2019-05-09T08:57:28.803Z,0.80
2019-05-09T08:59:58.962Z,0.40
2019-05-09T09:02:28.654Z,0.60
2019-05-09T09:04:59.109Z,0.53
2019-05-09T09:07:29.693Z,0.40
2019-05-09T09:09:59.234Z,0.50
2019-05-09T09:12:34.114Z,0.60
2019-05-09T09:14:59.645Z,0.40
2019-05-09T09:17:29.115Z,0.70
2019-05-09T09:19:58.537Z,0.60
2019-05-09T09:22:28.522Z,0.57
2019-05-09T09:24:58.678Z,0.40
2019-05-09T09:27:29.033Z,0.47
2019-05-09T09:30:03.665Z,0.47
2019-05-09T09:32:29.671Z,0.40
2019-05-09T09:35:00.055Z,0.57
2019-05-09T09:37:44.743Z,0.60
2019-05-09T09:40:00.611Z,0.70
2019-05-09T09:42:29.821Z,0.50
2019-05-09T09:44:59.088Z,0.50
2019-05-09T09:47:28.744Z,0.37
2019-05-09T09:50:00.204Z,0.50
2019-05-09T09:52:32.115Z,0.30
2019-05-09T09:55:00.404Z,0.50
2019-05-09T09:57:29.751Z,0.40
2019-05-09T10:00:20.074Z,0.50
2019-05-09T10:02:49.382Z,0.60
2019-05-09T10:05:18.779Z,0.40
2019-05-09T10:07:50.907Z,0.40
2019-05-09T10:10:34.394Z,0.63
2019-05-09T10:13:04.333Z,0.67
2019-05-09T10:15:39.874Z,0.40
2019-05-09T10:18:18.342Z,0.40
2019-05-09T10:20:58.621Z,0.53
2019-05-09T10:23:28.183Z,0.57
2019-05-09T10:25:58.206Z,0.50
2019-05-09T10:28:30.121Z,0.40
2019-05-09T10:30:58.704Z,0.40
2019-05-09T10:33:28.149Z,0.60
2019-05-09T10:36:04.538Z,0.70
2019-05-09T10:38:28.644Z,0.50
2019-05-09T10:41:01.058Z,0.50
2019-05-09T10:43:48.622Z,0.50
2019-05-09T10:46:51.404Z,0.50
2019-05-09T10:49:08.438Z,0.53
2019-05-09T10:51:38.010Z,0.70
2019-05-09T10:54:08.412Z,0.50
2019-05-09T10:56:38.582Z,0.60
2019-05-09T10:59:08.086Z,0.50
2019-05-09T11:01:38.213Z,0.73
2019-05-09T11:04:08.332Z,1.23
2019-05-09T11:06:38.450Z,0.77
2019-05-09T11:09:09.246Z,0.90
2019-05-09T11:11:38.798Z,1.00
2019-05-09T11:14:08.698Z,0.60
2019-05-09T11:16:45.728Z,0.73
2019-05-09T11:19:09.272Z,0.70
2019-05-09T11:21:39.266Z,1.30
2019-05-09T11:24:08.792Z,1.97
2019-05-09T11:26:39.833Z,1.53
2019-05-09T11:29:09.182Z,1.90
2019-05-09T11:31:38.703Z,0.83
2019-05-09T11:34:08.947Z,0.83
2019-05-09T11:36:38.629Z,1.00
2019-05-09T11:39:10.846Z,0.60
2019-05-09T11:41:40.054Z,0.50
2019-05-09T11:44:09.391Z,0.50
2019-05-09T11:46:38.794Z,0.80
2019-05-09T11:49:08.618Z,0.50
2019-05-09T11:51:38.085Z,0.50
2019-05-09T11:54:09.133Z,0.53
2019-05-09T11:56:38.800Z,0.70
2019-05-09T11:59:08.151Z,0.70
2019-05-09T12:01:39.710Z,0.70
2019-05-09T12:04:08.514Z,0.90
2019-05-09T12:06:38.529Z,1.70
2019-05-09T12:09:08.982Z,1.10
2019-05-09T12:11:41.514Z,1.20
2019-05-09T12:14:10.226Z,0.80
2019-05-09T12:16:39.524Z,2.83
2019-05-09T12:19:08.768Z,0.97
2019-05-09T12:21:47.099Z,0.90
2019-05-09T12:24:09.406Z,1.40
2019-05-09T12:26:39.245Z,0.90
2019-05-09T12:29:08.933Z,1.00
2019-05-09T12:31:38.838Z,1.03
2019-05-09T12:34:09.325Z,1.17
2019-05-09T12:36:39.956Z,1.00
2019-05-09T12:39:10.067Z,1.20
2019-05-09T12:41:39.711Z,1.57
2019-05-09T12:44:10.739Z,0.90
2019-05-09T12:46:40.020Z,0.80
2019-05-09T12:49:09.793Z,1.20
2019-05-09T12:51:39.128Z,1.30
2019-05-09T12:54:08.876Z,1.50
2019-05-09T12:56:38.697Z,1.33
2019-05-09T12:59:08.752Z,1.50
2019-05-09T13:01:40.565Z,1.17
2019-05-09T13:04:09.825Z,1.30
2019-05-09T13:06:39.268Z,1.60
2019-05-09T13:09:08.601Z,1.43
2019-05-09T13:11:39.054Z,1.60
2019-05-09T13:14:10.038Z,1.60
2019-05-09T13:16:53.362Z,2.23
2019-05-09T13:19:21.217Z,2.10
2019-05-09T13:21:50.589Z,1.77
2019-05-09T13:24:20.209Z,1.80
2019-05-09T13:26:50.978Z,1.50
2019-05-09T13:29:20.323Z,1.57
2019-05-09T13:31:49.823Z,1.20
2019-05-09T13:34:19.148Z,1.17
2019-05-09T13:36:49.031Z,1.53
2019-05-09T13:39:19.705Z,1.43
2019-05-09T13:41:49.065Z,1.40
2019-05-09T13:44:18.623Z,1.90
2019-05-09T13:46:48.945Z,1.80
2019-05-09T13:49:19.423Z,1.77
2019-05-09T13:51:58.609Z,1.90
2019-05-09T13:54:20.116Z,1.80
2019-05-09T13:56:57.214Z,1.87
2019-05-09T13:59:21.591Z,2.00
2019-05-09T14:01:51.479Z,1.77
2019-05-09T14:04:20.792Z,1.90
2019-05-09T14:06:50.141Z,2.10
2019-05-09T14:09:21.699Z,2.07
2019-05-09T14:11:50.838Z,1.47
2019-05-09T14:14:20.755Z,1.50
2019-05-09T14:16:50.241Z,1.40
2019-05-09T14:19:34.540Z,1.70
2019-05-09T14:21:52.312Z,1.90
2019-05-09T14:24:21.991Z,1.50
2019-05-09T14:26:51.356Z,1.63
2019-05-09T14:29:20.886Z,1.30
2019-05-09T14:31:50.530Z,1.50
2019-05-09T14:34:20.081Z,1.50
2019-05-09T14:36:50.054Z,1.80
2019-05-09T14:39:19.871Z,1.50
2019-05-09T14:41:50.112Z,1.73
2019-05-09T14:44:20.885Z,1.90
2019-05-09T14:46:50.240Z,1.30
2019-05-09T14:49:19.540Z,1.87
2019-05-09T14:51:50.059Z,1.50
2019-05-09T14:54:19.660Z,1.30
2019-05-09T14:56:49.016Z,1.30
2019-05-09T14:59:19.248Z,1.20
2019-05-09T15:01:49.679Z,1.00
2019-05-09T15:04:19.171Z,1.03
2019-05-09T15:06:48.890Z,1.43
2019-05-09T15:09:18.490Z,1.40
2019-05-09T15:11:48.550Z,1.67
2019-05-09T15:14:18.395Z,1.17
2019-05-09T15:16:48.696Z,1.57
2019-05-09T15:19:18.494Z,1.27
2019-05-09T15:21:48.729Z,1.73
2019-05-09T15:24:19.391Z,2.07
2019-05-09T15:26:49.006Z,1.37
2019-05-09T15:29:18.377Z,1.33
2019-05-09T15:31:54.785Z,1.30
2019-05-09T15:34:19.156Z,2.10
2019-05-09T15:36:48.557Z,1.70
2019-05-09T15:39:18.483Z,1.90
2019-05-09T15:41:48.017Z,1.43
2019-05-09T15:44:18.726Z,1.70
2019-05-09T15:46:52.761Z,1.80
2019-05-09T15:49:22.105Z,1.57
2019-05-09T15:51:51.491Z,1.50
2019-05-09T15:54:22.006Z,1.53
2019-05-09T15:56:51.285Z,1.50
2019-05-09T15:59:20.762Z,1.33
2019-05-09T16:01:50.159Z,1.30
2019-05-09T16:04:19.531Z,1.50
2019-05-09T16:06:51.079Z,1.67
2019-05-09T16:09:19.904Z,1.70
2019-05-09T16:11:49.281Z,1.40
2019-05-09T16:14:20.143Z,1.70
2019-05-09T16:16:49.469Z,2.07
2019-05-09T16:19:18.685Z,1.73
2019-05-09T16:21:48.891Z,1.40
2019-05-09T16:24:18.972Z,0.90
2019-05-09T16:26:48.881Z,1.40
2019-05-09T16:29:18.843Z,1.10
2019-05-09T16:31:48.425Z,1.40
2019-05-09T16:34:18.064Z,1.83
2019-05-09T16:36:48.101Z,1.30
2019-05-09T16:39:18.265Z,1.70
2019-05-09T16:41:48.364Z,1.83
2019-05-09T16:44:18.719Z,1.57
2019-05-09T16:46:51.673Z,2.00
2019-05-09T16:49:20.976Z,2.23
2019-05-09T16:51:50.306Z,2.20
2019-05-09T16:54:21.285Z,1.97
2019-05-09T16:56:50.621Z,2.37
2019-05-09T16:59:19.917Z,2.40
2019-05-09T17:01:50.261Z,2.07
2019-05-09T17:04:20.083Z,2.10
2019-05-09T17:06:49.893Z,2.27
2019-05-09T17:09:19.273Z,2.10
2019-05-09T17:11:48.676Z,1.90
2019-05-09T17:14:19.269Z,2.23
2019-05-09T17:16:52.589Z,2.80
2019-05-09T17:19:19.979Z,2.47
2019-05-09T17:21:54.555Z,3.80
2019-05-09T17:24:23.878Z,2.40
2019-05-09T17:26:53.286Z,3.53
2019-05-09T17:29:22.593Z,2.30
2019-05-09T17:31:52.656Z,2.33
2019-05-09T17:34:22.086Z,2.00
2019-05-09T17:36:51.397Z,2.40
2019-05-09T17:39:20.753Z,2.33
2019-05-09T17:41:50.099Z,2.20
2019-05-09T17:44:19.492Z,2.60
2019-05-09T17:46:49.654Z,3.20
2019-05-09T17:49:18.941Z,2.33
2019-05-09T17:51:48.419Z,2.50
2019-05-09T17:54:18.347Z,3.17
2019-05-09T17:56:48.434Z,2.70
2019-05-09T17:59:18.624Z,3.00
2019-05-09T18:01:48.354Z,15.63
2019-05-09T18:04:18.082Z,6.20
2019-05-09T18:06:48.927Z,2.80
2019-05-09T18:09:19.081Z,3.03
2019-05-09T18:11:50.345Z,2.80
2019-05-09T18:14:20.152Z,3.30
2019-05-09T18:16:49.455Z,2.50
2019-05-09T18:19:18.759Z,2.50
2019-05-09T18:21:51.428Z,3.20
2019-05-09T18:24:21.417Z,3.30
2019-05-09T18:26:50.701Z,3.00
2019-05-09T18:29:20.051Z,3.53
2019-05-09T18:32:07.737Z,4.17
2019-05-09T18:34:37.960Z,3.83
2019-05-09T18:37:08.156Z,3.20
2019-05-09T18:39:37.666Z,3.50
2019-05-09T18:42:08.705Z,3.77
2019-05-09T18:44:38.254Z,4.33
2019-05-09T18:47:07.944Z,4.87
2019-05-09T18:49:37.449Z,4.80
2019-05-09T18:52:06.941Z,6.10
2019-05-09T18:54:37.892Z,5.27
2019-05-09T18:57:07.574Z,6.03
2019-05-09T18:59:38.844Z,6.20
2019-05-09T19:02:09.948Z,5.63
2019-05-09T19:04:39.243Z,5.63
2019-05-09T19:07:21.170Z,6.40
2019-05-09T19:09:39.691Z,6.90
2019-05-09T19:12:09.323Z,6.13
2019-05-09T19:14:38.825Z,6.97
2019-05-09T19:17:36.151Z,5.80
2019-05-09T19:20:16.057Z,7.50
2019-05-09T19:22:45.558Z,6.33
2019-05-09T19:25:14.942Z,6.37
2019-05-09T19:27:44.271Z,6.27
2019-05-09T19:30:13.875Z,6.93
2019-05-09T19:32:43.236Z,7.30
2019-05-09T19:35:12.612Z,6.70
2019-05-09T19:37:41.885Z,6.60
2019-05-09T19:40:11.481Z,6.10
2019-05-09T19:42:40.861Z,7.00
2019-05-09T19:45:10.912Z,6.60
2019-05-09T19:47:40.333Z,6.57
2019-05-09T19:50:10.579Z,7.80
2019-05-09T19:52:41.657Z,7.07
2019-05-09T19:55:11.113Z,6.00
2019-05-09T19:57:40.432Z,7.27
2019-05-09T20:00:10.670Z,6.87
2019-05-09T20:02:40.863Z,7.10
2019-05-09T20:05:11.458Z,6.77
2019-05-09T20:07:40.789Z,6.40
2019-05-09T20:10:28.306Z,6.20
2019-05-09T20:13:15.574Z,6.30
2019-05-09T20:15:44.952Z,6.97
2019-05-09T20:18:14.272Z,7.10
2019-05-09T20:20:43.650Z,7.10
2019-05-09T20:23:13.050Z,7.43
2019-05-09T20:25:42.790Z,6.60
2019-05-09T20:28:12.922Z,7.53
2019-05-09T20:30:42.705Z,7.90
2019-05-09T20:33:12.295Z,7.00
2019-05-09T20:35:41.888Z,6.93
2019-05-09T20:38:13.499Z,7.70
2019-05-09T20:40:44.926Z,7.50
2019-05-09T20:43:18.075Z,7.43
2019-05-09T20:45:47.789Z,7.10
2019-05-09T20:50:50.667Z,7.23
2019-05-09T20:53:20.232Z,6.57
2019-05-09T20:55:49.912Z,8.20
2019-05-09T20:58:19.529Z,7.10
2019-05-09T21:00:49.159Z,5.13
2019-05-09T21:03:19.447Z,7.20
2019-05-09T21:05:49.089Z,6.33
2019-05-09T21:08:18.654Z,7.40
2019-05-09T21:10:48.243Z,6.73
2019-05-09T21:13:17.783Z,6.33
2019-05-09T21:15:47.665Z,6.40
2019-05-09T21:18:17.197Z,6.40
2019-05-09T21:20:47.050Z,7.30
2019-05-09T21:23:24.898Z,5.97
2019-05-09T21:25:48.365Z,5.63
2019-05-09T21:28:18.401Z,6.10
2019-05-09T21:30:47.985Z,5.50
2019-05-09T21:33:17.520Z,5.47
2019-05-09T21:35:46.955Z,5.37
2019-05-09T21:38:16.752Z,6.10
2019-05-09T21:40:46.158Z,5.90
2019-05-09T21:43:15.988Z,5.63
2019-05-09T21:45:45.448Z,5.90
2019-05-09T21:48:14.774Z,5.77
2019-05-09T21:50:44.781Z,7.43
2019-05-09T21:53:14.186Z,8.03
2019-05-09T21:55:43.606Z,5.50
2019-05-09T21:58:12.897Z,5.40
2019-05-09T22:00:44.392Z,5.50
2019-05-09T22:03:14.137Z,4.70
2019-05-09T22:05:44.470Z,5.83
2019-05-09T22:08:13.784Z,5.27
2019-05-09T22:10:43.138Z,5.63
2019-05-09T22:13:12.422Z,4.90
2019-05-09T22:15:41.781Z,5.17
2019-05-09T22:18:11.102Z,5.10
2019-05-09T22:20:40.375Z,4.90
2019-05-09T22:23:09.720Z,5.80
2019-05-09T22:25:39.017Z,4.63
2019-05-09T22:28:08.413Z,5.40
2019-05-09T22:30:38.213Z,5.10
2019-05-09T22:33:07.524Z,5.60
2019-05-09T22:35:36.841Z,4.70
2019-05-09T22:38:06.805Z,5.00
2019-05-09T22:40:36.144Z,5.47
2019-05-09T22:43:05.440Z,6.50
2019-05-09T22:45:34.775Z,5.40
2019-05-09T22:48:04.130Z,5.40
2019-05-09T22:50:33.469Z,5.90
2019-05-09T22:53:02.758Z,5.10
2019-05-09T22:55:32.065Z,5.57
2019-05-09T22:58:01.340Z,5.87
2019-05-09T23:00:30.660Z,5.30
2019-05-09T23:03:00.224Z,5.10
2019-05-09T23:05:29.535Z,5.33
2019-05-09T23:07:59.168Z,5.13
2019-05-09T23:10:28.465Z,4.33
2019-05-09T23:12:57.763Z,6.50
2019-05-09T23:15:27.058Z,5.00
2019-05-09T23:17:56.725Z,4.83
2019-05-09T23:20:43.607Z,4.60
2019-05-09T23:23:43.831Z,6.57
2019-05-09T23:26:17.021Z,5.40
2019-05-09T23:28:46.365Z,5.37
2019-05-09T23:31:19.801Z,5.13
2019-05-09T23:33:49.083Z,4.67
2019-05-09T23:36:18.377Z,4.60
2019-05-09T23:39:06.077Z,4.07
2019-05-09T23:41:35.491Z,4.33
2019-05-09T23:44:04.912Z,4.90
2019-05-09T23:46:34.194Z,4.53
2019-05-09T23:49:03.684Z,5.30
2019-05-09T23:52:04.271Z,4.93
2019-05-09T23:54:54.303Z,5.70
2019-05-09T23:57:41.258Z,4.90
